createdAt,value
2022-12-03T00:00:23.983Z,100390.03
2022-12-03T00:02:52.176Z,100386.03
2022-12-03T00:05:20.280Z,100386.34
2022-12-03T00:07:48.274Z,100393.22
2022-12-03T00:10:18.659Z,100386.84
2022-12-03T00:12:46.724Z,100390.47
2022-12-03T00:15:14.970Z,100398.97
2022-12-03T00:17:42.911Z,100392.50
2022-12-03T00:20:19.095Z,100392.50
2022-12-03T00:22:48.102Z,100394.00
2022-12-03T00:25:16.263Z,100389.72
2022-12-03T00:27:45.607Z,100386.72
2022-12-03T00:30:15.415Z,100390.13
2022-12-03T00:32:43.610Z,100383.47
2022-12-03T00:35:11.555Z,100384.22
2022-12-03T00:37:39.580Z,100386.50
2022-12-03T00:40:08.947Z,100383.91
2022-12-03T00:42:36.914Z,100392.66
2022-12-03T00:45:07.489Z,100380.19
2022-12-03T00:47:35.472Z,100392.00
2022-12-03T00:50:03.424Z,100374.84
2022-12-03T00:52:31.527Z,100388.38
2022-12-03T00:54:59.518Z,100363.72
2022-12-03T00:57:27.471Z,100395.91
2022-12-03T00:59:55.434Z,100401.72
2022-12-03T01:02:24.753Z,100398.06
2022-12-03T01:04:53.046Z,100403.41
2022-12-03T01:07:21.331Z,100395.47
2022-12-03T01:09:49.280Z,100378.97
2022-12-03T01:12:17.182Z,100391.19
2022-12-03T01:14:45.347Z,100390.13
2022-12-03T01:17:13.390Z,100394.72
2022-12-03T01:19:48.058Z,100397.63
2022-12-03T01:22:16.455Z,100395.25
2022-12-03T01:24:44.442Z,100403.41
2022-12-03T01:27:12.391Z,100404.63
2022-12-03T01:29:40.326Z,100408.91
2022-12-03T01:32:19.702Z,100402.78
2022-12-03T01:34:51.859Z,100405.81
2022-12-03T01:37:22.402Z,100392.69
2022-12-03T01:39:50.572Z,100366.31
2022-12-03T01:42:20.788Z,100405.78
2022-12-03T01:44:50.023Z,100396.13
2022-12-03T01:47:19.859Z,100397.63
2022-12-03T01:49:52.077Z,100381.84
2022-12-03T01:52:25.155Z,100397.31
2022-12-03T01:54:56.523Z,100401.69
2022-12-03T01:57:27.575Z,100393.97
2022-12-03T01:59:58.216Z,100401.06
2022-12-03T02:02:28.447Z,100401.06
2022-12-03T02:04:58.396Z,100394.03
2022-12-03T02:07:28.366Z,100410.09
2022-12-03T02:09:58.261Z,100406.03
2022-12-03T02:12:31.129Z,100405.13
2022-12-03T02:14:59.647Z,100400.09
2022-12-03T02:17:28.182Z,100396.53
2022-12-03T02:19:58.289Z,100395.47
2022-12-03T02:22:38.617Z,100396.34
2022-12-03T02:25:17.531Z,100392.78
2022-12-03T02:27:46.620Z,100404.00
2022-12-03T02:30:17.381Z,100398.63
2022-12-03T02:32:45.750Z,100406.34
2022-12-03T02:35:18.311Z,100398.53
2022-12-03T02:37:48.526Z,100395.31
2022-12-03T02:40:21.239Z,100404.66
2022-12-03T02:42:50.438Z,100405.72
2022-12-03T02:45:21.427Z,100409.59
2022-12-03T02:47:52.862Z,100405.78
2022-12-03T02:50:27.056Z,100412.91
2022-12-03T02:52:57.741Z,100415.38
2022-12-03T02:55:34.950Z,100415.03
2022-12-03T02:58:05.922Z,100418.84
2022-12-03T03:00:34.465Z,100414.31
2022-12-03T03:03:04.208Z,100417.75
2022-12-03T03:05:32.828Z,100427.22
2022-12-03T03:08:01.764Z,100420.78
2022-12-03T03:10:31.670Z,100414.53
2022-12-03T03:13:00.097Z,100421.19
2022-12-03T03:15:28.123Z,100417.34
2022-12-03T03:17:56.202Z,100420.16
2022-12-03T03:20:24.196Z,100419.00
2022-12-03T03:22:52.252Z,100411.16
2022-12-03T03:25:22.468Z,100419.56
2022-12-03T03:27:51.808Z,100423.19
2022-12-03T03:30:19.971Z,100431.63
2022-12-03T03:32:47.969Z,100427.03
2022-12-03T03:35:17.962Z,100427.28
2022-12-03T03:37:45.988Z,100431.81
2022-12-03T03:40:14.293Z,100434.19
2022-12-03T03:42:42.587Z,100431.38
2022-12-03T03:45:12.312Z,100428.16
2022-12-03T03:47:40.707Z,100424.50
2022-12-03T03:50:11.559Z,100418.47
2022-12-03T03:52:41.294Z,100376.63
2022-12-03T03:55:11.863Z,100416.66
2022-12-03T03:57:40.783Z,100408.09
2022-12-03T04:00:10.104Z,100412.47
2022-12-03T04:02:39.436Z,100409.34
2022-12-03T04:05:08.790Z,100392.09
2022-12-03T04:07:36.788Z,100407.94
2022-12-03T04:10:25.651Z,100406.34
2022-12-03T04:12:57.118Z,100404.06
2022-12-03T04:15:25.852Z,100402.66
2022-12-03T04:18:09.054Z,100408.53
2022-12-03T04:20:37.035Z,100401.06
2022-12-03T04:23:04.187Z,100401.69
2022-12-03T04:25:49.511Z,100398.47
2022-12-03T04:28:35.042Z,100393.31
2022-12-03T04:31:23.728Z,100405.31
2022-12-03T04:34:12.642Z,100406.06
2022-12-03T04:36:40.720Z,100403.59
2022-12-03T04:39:08.637Z,100407.78
2022-12-03T04:41:36.583Z,100403.59
2022-12-03T04:44:21.854Z,100410.94
2022-12-03T04:46:49.743Z,100400.19
2022-12-03T04:49:18.987Z,100405.31
2022-12-03T04:51:46.979Z,100411.97
2022-12-03T04:54:15.133Z,100407.03
2022-12-03T04:56:43.046Z,100412.84
2022-12-03T04:59:15.963Z,100405.31
2022-12-03T05:01:45.982Z,100408.19
2022-12-03T05:04:14.698Z,100419.72
2022-12-03T05:06:44.076Z,100419.41
2022-12-03T05:09:12.395Z,100423.31
2022-12-03T05:11:40.576Z,100414.81
2022-12-03T05:14:09.232Z,100417.09
2022-12-03T05:16:37.658Z,100418.16
2022-12-03T05:19:07.003Z,100418.91
2022-12-03T05:21:35.084Z,100416.88
2022-12-03T05:24:05.131Z,100429.13
2022-12-03T05:26:33.083Z,100427.41
2022-12-03T05:29:02.502Z,100431.38
2022-12-03T05:31:30.523Z,100434.59
2022-12-03T05:33:58.487Z,100432.88
2022-12-03T05:36:26.453Z,100438.69
2022-12-03T05:38:54.433Z,100440.78
2022-12-03T05:41:41.240Z,100436.91
2022-12-03T05:44:09.444Z,100429.28
2022-12-03T05:46:37.462Z,100429.00
2022-12-03T05:49:05.489Z,100431.75
2022-12-03T05:51:33.462Z,100428.53
2022-12-03T05:54:01.411Z,100415.78
2022-12-03T05:56:30.675Z,100411.97
2022-12-03T05:58:58.602Z,100411.97
2022-12-03T06:01:26.515Z,100408.53
2022-12-03T06:03:54.492Z,100411.31
2022-12-03T06:06:22.538Z,100410.66
2022-12-03T06:08:50.989Z,100415.63
2022-12-03T06:11:18.973Z,100416.59
2022-12-03T06:13:48.234Z,100413.25
2022-12-03T06:16:16.236Z,100410.13
2022-12-03T06:18:44.184Z,100409.38
2022-12-03T06:21:12.095Z,100411.09
2022-12-03T06:23:44.542Z,100406.59
2022-12-03T06:26:12.854Z,100411.53
2022-12-03T06:28:40.879Z,100419.25
2022-12-03T06:31:10.321Z,100432.81
2022-12-03T06:33:38.268Z,100421.78
2022-12-03T06:36:07.026Z,100428.09
2022-12-03T06:38:34.995Z,100426.22
2022-12-03T06:41:02.963Z,100425.34
2022-12-03T06:43:31.132Z,100438.09
2022-12-03T06:45:59.145Z,100435.31
2022-12-03T06:48:28.387Z,100433.81
2022-12-03T06:50:56.263Z,100433.69
2022-12-03T06:53:26.131Z,100434.03
2022-12-03T06:55:54.058Z,100442.00
2022-12-03T06:58:22.055Z,100438.69
2022-12-03T07:00:49.939Z,100439.66
2022-12-03T07:03:17.995Z,100445.34
2022-12-03T07:05:47.313Z,100447.81
2022-12-03T07:08:15.284Z,100449.31
2022-12-03T07:10:43.275Z,100447.31
2022-12-03T07:13:11.204Z,100442.19
2022-12-03T07:15:39.136Z,100443.44
2022-12-03T07:18:07.286Z,100444.91
2022-12-03T07:20:35.181Z,100455.47
2022-12-03T07:23:04.590Z,100448.56
2022-12-03T07:25:32.545Z,100449.03
2022-12-03T07:28:00.630Z,100439.13
2022-12-03T07:30:28.791Z,100438.56
2022-12-03T07:32:58.187Z,100435.63
2022-12-03T07:35:26.072Z,100441.75
2022-12-03T07:37:53.971Z,100446.09
2022-12-03T07:40:23.336Z,100443.72
2022-12-03T07:42:51.307Z,100434.88
2022-12-03T07:45:19.270Z,100429.34
2022-12-03T07:47:47.239Z,100431.28
2022-12-03T07:50:15.327Z,100432.22
2022-12-03T07:52:43.314Z,100433.91
2022-12-03T07:55:13.311Z,100424.84
2022-12-03T07:57:42.557Z,100433.91
2022-12-03T08:00:12.802Z,100438.88
2022-12-03T08:02:40.900Z,100435.81
2022-12-03T08:05:09.156Z,100444.22
2022-12-03T08:07:37.192Z,100441.94
2022-12-03T08:10:05.871Z,100436.59
2022-12-03T08:12:41.051Z,100442.09
2022-12-03T08:15:17.050Z,100438.09
2022-12-03T08:17:46.579Z,100402.28
2022-12-03T08:20:17.353Z,100447.66
2022-12-03T08:22:47.543Z,100443.59
2022-12-03T08:25:21.418Z,100442.84
2022-12-03T08:27:49.379Z,100448.19
2022-12-03T08:30:19.866Z,100445.34
2022-12-03T08:32:48.771Z,100411.56
2022-12-03T08:35:23.557Z,100438.53
2022-12-03T08:37:58.243Z,100435.38
2022-12-03T08:40:34.507Z,100438.63
2022-12-03T08:43:01.791Z,100433.66
2022-12-03T08:45:41.741Z,100440.06
2022-12-03T08:48:33.663Z,100406.03
2022-12-03T08:51:05.832Z,100437.66
2022-12-03T08:53:36.082Z,100432.69
2022-12-03T08:56:14.122Z,100439.56
2022-12-03T08:58:44.001Z,100440.81
2022-12-03T09:01:33.598Z,100432.75
2022-12-03T09:04:24.891Z,100440.47
2022-12-03T09:06:53.985Z,100433.88
2022-12-03T09:09:22.715Z,100425.59
2022-12-03T09:11:50.954Z,100417.88
2022-12-03T09:14:21.215Z,100425.78
2022-12-03T09:16:51.953Z,100420.13
2022-12-03T09:19:20.018Z,100418.53
2022-12-03T09:21:47.988Z,100424.44
2022-12-03T09:24:15.909Z,100412.59
2022-12-03T09:26:43.879Z,100419.47
2022-12-03T09:29:12.607Z,100418.09
2022-12-03T09:31:41.211Z,100420.94
2022-12-03T09:34:10.991Z,100423.50
2022-12-03T09:36:39.192Z,100419.97
2022-12-03T09:39:07.139Z,100416.91
2022-12-03T09:41:35.222Z,100413.41
2022-12-03T09:44:04.863Z,100421.22
2022-12-03T09:46:35.275Z,100419.69
2022-12-03T09:49:03.585Z,100424.88
2022-12-03T09:51:36.567Z,100425.22
2022-12-03T09:54:07.568Z,100429.50
2022-12-03T09:56:38.930Z,100421.38
2022-12-03T09:59:13.639Z,100430.22
2022-12-03T10:01:41.817Z,100427.63
2022-12-03T10:04:10.333Z,100422.00
2022-12-03T10:06:45.584Z,100415.81
2022-12-03T10:09:17.730Z,100432.59
2022-12-03T10:11:45.840Z,100427.63
2022-12-03T10:14:15.233Z,100435.84
2022-12-03T10:16:43.670Z,100434.31
2022-12-03T10:19:20.200Z,100423.34
2022-12-03T10:21:49.565Z,100417.78
2022-12-03T10:24:23.205Z,100416.31
2022-12-03T10:26:53.353Z,100417.25
2022-12-03T10:29:25.811Z,100405.69
2022-12-03T10:31:59.268Z,100412.06
2022-12-03T10:34:31.454Z,100416.00
2022-12-03T10:37:16.540Z,100418.03
2022-12-03T10:39:56.216Z,100413.06
2022-12-03T10:42:25.680Z,100413.81
2022-12-03T10:45:09.178Z,100405.53
2022-12-03T10:47:37.162Z,100409.13
2022-12-03T10:50:10.207Z,100415.63
2022-12-03T10:52:39.550Z,100411.34
2022-12-03T10:55:10.379Z,100411.34
2022-12-03T10:57:43.761Z,100407.94
2022-12-03T11:00:17.269Z,100398.59
2022-12-03T11:02:46.775Z,100407.00
2022-12-03T11:05:19.392Z,100406.81
2022-12-03T11:07:49.003Z,100394.41
2022-12-03T11:10:19.364Z,100389.44
2022-12-03T11:13:20.777Z,100388.75
2022-12-03T11:15:48.915Z,100387.53
2022-12-03T11:18:50.196Z,100379.31
2022-12-03T11:21:20.748Z,100378.63
2022-12-03T11:24:19.770Z,100379.00
2022-12-03T11:27:20.670Z,100389.78
2022-12-03T11:30:02.445Z,100368.09
2022-12-03T11:33:09.573Z,100366.75
2022-12-03T11:36:12.401Z,100355.31
2022-12-03T11:38:52.663Z,100356.69
2022-12-03T11:41:31.303Z,100363.47
2022-12-03T11:44:30.823Z,100354.03
2022-12-03T11:47:02.114Z,100363.38
2022-12-03T11:49:35.349Z,100363.38
2022-12-03T11:52:13.253Z,100361.66
2022-12-03T11:54:42.274Z,100355.66
2022-12-03T11:57:28.366Z,100346.75
2022-12-03T12:00:01.550Z,100333.56
2022-12-03T12:02:40.312Z,100342.13
2022-12-03T12:05:28.030Z,100336.38
2022-12-03T12:07:58.403Z,100333.25
2022-12-03T12:10:47.943Z,100335.91
2022-12-03T12:13:55.651Z,100327.69
2022-12-03T12:16:50.529Z,100333.16
2022-12-03T12:19:33.209Z,100325.16
2022-12-03T12:22:18.855Z,100325.00
2022-12-03T12:24:52.833Z,100334.75
2022-12-03T12:27:22.879Z,100323.56
2022-12-03T12:29:56.146Z,100324.34
2022-12-03T12:32:31.493Z,100324.16
2022-12-03T12:35:03.518Z,100321.50
2022-12-03T12:37:36.234Z,100322.28
2022-12-03T12:40:13.324Z,100321.03
2022-12-03T12:42:49.637Z,100326.38
2022-12-03T12:45:20.335Z,100322.28
2022-12-03T12:48:03.127Z,100311.56
2022-12-03T12:50:32.058Z,100312.44
2022-12-03T12:53:03.815Z,100308.66
2022-12-03T12:55:31.817Z,100308.38
2022-12-03T12:58:05.418Z,100312.13
2022-12-03T13:00:33.361Z,100310.34
2022-12-03T13:03:04.668Z,100296.56
2022-12-03T13:05:39.415Z,100298.09
2022-12-03T13:08:22.535Z,100298.91
2022-12-03T13:10:51.311Z,100304.47
2022-12-03T13:13:31.991Z,100300.19
2022-12-03T13:16:03.763Z,100300.28
2022-12-03T13:18:46.084Z,100299.66
2022-12-03T13:21:21.173Z,100312.53
2022-12-03T13:23:50.171Z,100305.66
2022-12-03T13:29:16.047Z,100310.25
2022-12-03T13:31:50.026Z,100305.19
2022-12-03T13:34:22.782Z,100301.84
2022-12-03T13:36:57.565Z,100303.31
2022-12-03T13:39:30.505Z,100302.25
2022-12-03T13:42:17.836Z,100292.00
2022-12-03T13:44:48.747Z,100304.50
2022-12-03T13:47:21.865Z,100314.28
2022-12-03T13:49:56.590Z,100309.91
2022-12-03T13:52:26.952Z,100306.44
2022-12-03T13:54:57.001Z,100309.91
2022-12-03T13:57:25.005Z,100306.44
2022-12-03T13:59:53.199Z,100303.97
2022-12-03T14:02:21.558Z,100309.53
2022-12-03T14:04:49.557Z,100302.84
2022-12-03T14:07:18.915Z,100300.38
2022-12-03T14:09:46.835Z,100304.47
2022-12-03T14:12:26.688Z,100301.13
2022-12-03T14:14:55.280Z,100302.75
2022-12-03T14:17:23.210Z,100301.31
2022-12-03T14:19:51.217Z,100300.38
2022-12-03T14:22:23.439Z,100298.66
2022-12-03T14:24:51.405Z,100317.75
2022-12-03T14:27:19.456Z,100306.00
2022-12-03T14:29:47.722Z,100315.09
2022-12-03T14:32:15.775Z,100316.72
2022-12-03T14:34:44.057Z,100313.38
2022-12-03T14:37:12.073Z,100316.47
2022-12-03T14:39:41.424Z,100322.13
2022-12-03T14:42:15.058Z,100311.34
2022-12-03T14:44:44.874Z,100303.13
2022-12-03T14:47:13.395Z,100290.34
2022-12-03T14:49:41.598Z,100298.16
2022-12-03T14:52:12.425Z,100298.16
2022-12-03T14:54:43.178Z,100301.59
2022-12-03T14:57:12.664Z,100301.59
2022-12-03T14:59:41.822Z,100312.44
2022-12-03T15:02:10.494Z,100307.53
2022-12-03T15:04:38.750Z,100301.72
2022-12-03T15:07:07.102Z,100317.16
2022-12-03T15:09:35.654Z,100301.13
2022-12-03T15:12:05.944Z,100308.75
2022-12-03T15:14:34.005Z,100326.91
2022-12-03T15:17:02.115Z,100320.22
2022-12-03T15:19:30.160Z,100317.75
2022-12-03T15:21:58.282Z,100326.91
2022-12-03T15:24:26.268Z,100319.47
2022-12-03T15:26:54.214Z,100313.72
2022-12-03T15:29:24.695Z,100312.94
2022-12-03T15:31:52.709Z,100308.19
2022-12-03T15:34:22.783Z,100304.25
2022-12-03T15:36:51.455Z,100296.28
2022-12-03T15:39:19.411Z,100294.81
2022-12-03T15:41:48.214Z,100296.69
2022-12-03T15:44:16.269Z,100285.84
2022-12-03T15:46:45.671Z,100299.44
2022-12-03T15:49:13.660Z,100300.38
2022-12-03T15:51:41.649Z,100297.09
2022-12-03T15:54:12.097Z,100295.41
2022-12-03T15:56:40.077Z,100300.53
2022-12-03T15:59:07.948Z,100288.09
2022-12-03T16:01:35.958Z,100298.03
2022-12-03T16:04:05.556Z,100284.84
2022-12-03T16:06:33.951Z,100275.88
2022-12-03T16:09:02.011Z,100280.84
2022-12-03T16:11:30.098Z,100274.16
2022-12-03T16:13:58.151Z,100275.88
2022-12-03T16:16:26.475Z,100278.09
2022-12-03T16:18:54.849Z,100279.97
2022-12-03T16:21:27.038Z,100283.47
2022-12-03T16:23:55.909Z,100283.56
2022-12-03T16:26:24.512Z,100289.41
2022-12-03T16:28:53.178Z,100293.69
2022-12-03T16:31:21.647Z,100287.84
2022-12-03T16:33:49.972Z,100293.69
2022-12-03T16:36:18.248Z,100292.03
2022-12-03T16:38:47.930Z,100273.84
2022-12-03T16:41:16.017Z,100291.97
2022-12-03T16:43:47.232Z,100294.38
2022-12-03T16:46:25.783Z,100287.75
2022-12-03T16:48:55.340Z,100292.81
2022-12-03T16:51:27.145Z,100294.53
2022-12-03T16:53:56.845Z,100287.69
2022-12-03T16:56:25.131Z,100280.47
2022-12-03T16:58:53.263Z,100288.97
2022-12-03T17:01:23.449Z,100285.66
2022-12-03T17:03:51.642Z,100287.47
2022-12-03T17:06:20.559Z,100278.22
2022-12-03T17:08:49.842Z,100284.28
2022-12-03T17:11:19.946Z,100287.63
2022-12-03T17:13:48.185Z,100280.97
2022-12-03T17:16:16.138Z,100265.66
2022-12-03T17:18:44.153Z,100285.84
2022-12-03T17:21:12.120Z,100284.22
2022-12-03T17:23:40.089Z,100291.66
2022-12-03T17:26:08.097Z,100286.63
2022-12-03T17:28:37.492Z,100267.97
2022-12-03T17:31:05.649Z,100283.34
2022-12-03T17:33:34.031Z,100272.19
2022-12-03T17:36:02.657Z,100281.81
2022-12-03T17:38:35.614Z,100279.31
2022-12-03T17:41:07.361Z,100283.53
2022-12-03T17:43:35.300Z,100288.50
2022-12-03T17:46:06.553Z,100290.97
2022-12-03T17:48:50.185Z,100278.38
2022-12-03T17:51:19.314Z,100279.94
2022-12-03T17:53:47.489Z,100281.03
2022-12-03T17:56:15.406Z,100276.16
2022-12-03T17:58:43.375Z,100268.78
2022-12-03T18:01:12.864Z,100275.47
2022-12-03T18:03:40.880Z,100272.91
2022-12-03T18:06:09.271Z,100273.91
2022-12-03T18:08:37.164Z,100282.16
2022-12-03T18:11:05.450Z,100280.59
2022-12-03T18:13:33.453Z,100289.00
2022-12-03T18:16:01.547Z,100289.16
2022-12-03T18:18:30.903Z,100284.31
2022-12-03T18:21:02.036Z,100283.63
2022-12-03T18:23:30.077Z,100284.41
2022-12-03T18:25:58.418Z,100287.59
2022-12-03T18:28:26.453Z,100279.13
2022-12-03T18:30:54.891Z,100275.63
2022-12-03T18:33:23.535Z,100268.09
2022-12-03T18:35:56.844Z,100273.41
2022-12-03T18:38:29.673Z,100278.56
2022-12-03T18:40:58.783Z,100274.09
2022-12-03T18:43:28.040Z,100276.69
2022-12-03T18:45:56.060Z,100285.84
2022-12-03T18:48:24.053Z,100286.78
2022-12-03T18:50:51.989Z,100284.28
2022-12-03T18:53:21.587Z,100277.31
2022-12-03T18:55:49.895Z,100285.06
2022-12-03T18:58:19.315Z,100284.13
2022-12-03T19:00:47.468Z,100272.34
2022-12-03T19:03:15.698Z,100279.03
2022-12-03T19:05:44.411Z,100279.94
2022-12-03T19:08:15.255Z,100278.22
2022-12-03T19:10:45.012Z,100279.16
2022-12-03T19:13:13.490Z,100289.19
2022-12-03T19:15:42.392Z,100276.28
2022-12-03T19:18:10.314Z,100290.91
2022-12-03T19:20:41.817Z,100291.59
2022-12-03T19:23:10.575Z,100285.63
2022-12-03T19:25:38.928Z,100298.25
2022-12-03T19:28:09.037Z,100293.28
2022-12-03T19:30:37.735Z,100291.34
2022-12-03T19:33:05.776Z,100292.31
2022-12-03T19:35:33.727Z,100301.69
2022-12-03T19:38:01.781Z,100300.84
2022-12-03T19:40:32.102Z,100293.94
2022-12-03T19:43:01.400Z,100287.25
2022-12-03T19:45:30.891Z,100297.19
2022-12-03T19:48:00.380Z,100292.34
2022-12-03T19:50:28.878Z,100296.25
2022-12-03T19:52:57.260Z,100311.47
2022-12-03T19:55:25.281Z,100306.34
2022-12-03T19:57:53.694Z,100307.59
2022-12-03T20:00:22.637Z,100308.53
2022-12-03T20:02:52.042Z,100305.44
2022-12-03T20:05:20.069Z,100306.38
2022-12-03T20:07:48.103Z,100307.94
2022-12-03T20:10:16.221Z,100301.59
2022-12-03T20:12:44.149Z,100306.59
2022-12-03T20:15:13.594Z,100305.16
2022-12-03T20:17:41.493Z,100299.56
2022-12-03T20:20:11.977Z,100293.06
2022-12-03T20:22:39.963Z,100303.16
2022-12-03T20:25:08.793Z,100293.38
2022-12-03T20:27:37.424Z,100296.78
2022-12-03T20:30:06.857Z,100294.38
2022-12-03T20:32:40.551Z,100293.84
2022-12-03T20:35:13.019Z,100295.72
2022-12-03T20:37:40.950Z,100291.69
2022-12-03T20:40:10.046Z,100295.09
2022-12-03T20:42:37.982Z,100299.31
2022-12-03T20:45:07.150Z,100304.28
2022-12-03T20:47:35.100Z,100306.00
2022-12-03T20:50:03.086Z,100307.53
2022-12-03T20:52:32.366Z,100301.56
2022-12-03T20:55:00.694Z,100298.97
2022-12-03T20:57:28.855Z,100311.50
2022-12-03T20:59:56.959Z,100308.16
2022-12-03T21:02:24.962Z,100314.66
2022-12-03T21:04:54.359Z,100314.59
2022-12-03T21:07:22.244Z,100308.91
2022-12-03T21:09:51.876Z,100315.69
2022-12-03T21:12:19.988Z,100320.59
2022-12-03T21:14:48.242Z,100312.03
2022-12-03T21:17:16.219Z,100311.69
2022-12-03T21:19:44.252Z,100289.22
2022-12-03T21:22:12.244Z,100300.44
2022-12-03T21:24:42.691Z,100311.38
2022-12-03T21:27:14.597Z,100303.25
2022-12-03T21:29:46.351Z,100303.16
2022-12-03T21:32:14.339Z,100305.47
2022-12-03T21:34:42.893Z,100304.72
2022-12-03T21:37:10.895Z,100304.00
2022-12-03T21:39:38.939Z,100301.28
2022-12-03T21:42:25.971Z,100306.41
2022-12-03T21:44:56.202Z,100304.72
2022-12-03T21:47:24.153Z,100304.38
2022-12-03T21:49:52.227Z,100305.91
2022-12-03T21:52:20.356Z,100304.13
2022-12-03T21:54:48.286Z,100310.88
2022-12-03T21:57:16.278Z,100308.31
2022-12-03T21:59:44.224Z,100309.09
2022-12-03T22:02:13.785Z,100310.88
2022-12-03T22:04:41.799Z,100311.91
2022-12-03T22:07:09.971Z,100310.38
2022-12-03T22:09:38.381Z,100306.84
2022-12-03T22:12:06.994Z,100304.22
2022-12-03T22:14:34.917Z,100299.78
2022-12-03T22:17:02.969Z,100292.00
2022-12-03T22:19:32.571Z,100302.03
2022-12-03T22:22:00.480Z,100301.09
2022-12-03T22:24:28.493Z,100303.81
2022-12-03T22:26:56.520Z,100301.50
2022-12-03T22:29:24.490Z,100303.22
2022-12-03T22:31:52.636Z,100300.66
2022-12-03T22:34:20.565Z,100297.22
2022-12-03T22:36:49.931Z,100289.78
2022-12-03T22:39:17.971Z,100282.06
2022-12-03T22:41:45.950Z,100304.69
2022-12-03T22:44:14.349Z,100305.44
2022-12-03T22:46:42.409Z,100298.00
2022-12-03T22:49:10.410Z,100297.81
2022-12-03T22:51:38.345Z,100302.88
2022-12-03T22:54:07.682Z,100303.75
2022-12-03T22:56:36.067Z,100303.75
2022-12-03T22:59:04.142Z,100295.50
2022-12-03T23:01:34.367Z,100286.59
2022-12-03T23:04:03.613Z,100281.63
2022-12-03T23:06:32.767Z,100286.03
2022-12-03T23:09:00.739Z,100285.25
2022-12-03T23:11:30.126Z,100288.69
2022-12-03T23:13:58.933Z,100286.03
2022-12-03T23:16:29.710Z,100251.47
2022-12-03T23:18:59.522Z,100278.84
2022-12-03T23:21:30.697Z,100281.22
2022-12-03T23:23:59.637Z,100282.88
2022-12-03T23:26:27.946Z,100271.38
2022-12-03T23:28:57.624Z,100266.81
2022-12-03T23:31:27.375Z,100252.84
2022-12-03T23:33:56.523Z,100255.53
2022-12-03T23:36:26.234Z,100255.63
2022-12-03T23:38:54.891Z,100256.56
2022-12-03T23:41:24.528Z,100225.41
2022-12-03T23:43:52.687Z,100240.50
2022-12-03T23:46:24.475Z,100248.31
2022-12-03T23:48:53.282Z,100243.66
2022-12-03T23:51:24.246Z,100235.59
2022-12-03T23:53:53.330Z,100242.56
2022-12-03T23:56:23.243Z,100232.59
2022-12-03T23:58:51.622Z,100230.34
